Terminal Aerodrome Forecast
Issued by NWS

Home | Current Version | Previous Version | Graphics & Text | Print | Product List | Glossary On
Versions: 1 2 3 4 5 6 7 8 9 10 11 12 13 14 15 16 17
000
FTUS43 KFGF 270520
TAFBJI
TAF
KBJI 270520Z 2706/2806 23004KT P6SM SKC
     FM271700 25009KT P6SM SCT200
     FM280100 24006KT P6SM BKN110=

USA.gov is the U.S. government's official web portal to all federal, state and local government web resources and services.